createdAt,value
2022-08-10T00:01:57.833Z,99559.72
2022-08-10T00:04:27.309Z,99554.25
2022-08-10T00:06:57.223Z,99556.47
2022-08-10T00:09:26.997Z,99556.06
2022-08-10T00:11:56.370Z,99554.72
2022-08-10T00:14:25.722Z,99551.75
2022-08-10T00:16:55.123Z,99559.00
2022-08-10T00:19:27.092Z,99553.31
2022-08-10T00:22:17.025Z,99548.06
2022-08-10T00:24:46.534Z,99552.72
2022-08-10T00:27:52.819Z,99549.38
2022-08-10T00:30:05.231Z,99553.59
2022-08-10T00:32:35.035Z,99553.00
2022-08-10T00:35:08.521Z,99555.97
2022-08-10T00:37:38.032Z,99553.75
2022-08-10T00:40:08.147Z,99551.19
2022-08-10T00:42:37.567Z,99548.88
2022-08-10T00:45:07.332Z,99556.38
2022-08-10T00:47:37.863Z,99553.13
2022-08-10T00:50:10.859Z,99554.09
2022-08-10T00:52:41.116Z,99556.44
2022-08-10T00:55:10.942Z,99551.75
2022-08-10T00:57:41.217Z,99551.88
2022-08-10T01:00:11.733Z,99549.22
2022-08-10T01:02:41.486Z,99548.78
2022-08-10T01:05:14.812Z,99554.28
2022-08-10T01:08:07.927Z,99548.47
2022-08-10T01:10:41.551Z,99550.94
2022-08-10T01:13:13.932Z,99557.00
2022-08-10T01:15:50.705Z,99554.22
2022-08-10T01:18:24.269Z,99553.53
2022-08-10T01:21:03.394Z,99551.09
2022-08-10T01:23:51.160Z,99555.84
2022-08-10T01:26:31.573Z,99551.88
2022-08-10T01:29:09.525Z,99552.56
2022-08-10T01:31:44.207Z,99558.78
2022-08-10T01:34:15.934Z,99557.13
2022-08-10T01:36:48.913Z,99550.13
2022-08-10T01:39:21.940Z,99550.38
2022-08-10T01:41:53.744Z,99551.66
2022-08-10T01:44:32.076Z,99551.91
2022-08-10T01:47:22.089Z,99557.47
2022-08-10T01:49:53.184Z,99556.28
2022-08-10T01:52:23.519Z,99555.34
2022-08-10T01:54:56.058Z,99557.91
2022-08-10T01:57:27.109Z,99556.06
2022-08-10T02:00:00.648Z,99561.16
2022-08-10T02:02:38.669Z,99560.59
2022-08-10T02:05:09.163Z,99560.25
2022-08-10T02:07:39.994Z,99556.16
2022-08-10T02:10:12.377Z,99555.69
2022-08-10T02:12:43.649Z,99557.88
2022-08-10T02:15:15.486Z,99571.28
2022-08-10T02:17:59.747Z,99567.19
2022-08-10T02:20:35.152Z,99566.63
2022-08-10T02:23:08.590Z,99567.69
2022-08-10T02:25:40.772Z,99560.41
2022-08-10T02:28:30.558Z,99560.88
2022-08-10T02:31:01.850Z,99565.88
2022-08-10T02:33:37.330Z,99573.06
2022-08-10T02:36:08.652Z,99568.00
2022-08-10T02:38:57.594Z,99569.88
2022-08-10T02:42:18.763Z,99573.59
2022-08-10T02:45:20.482Z,99581.19
2022-08-10T02:47:18.414Z,99578.72
2022-08-10T02:49:52.614Z,99577.84
2022-08-10T02:52:24.116Z,99584.69
2022-08-10T02:54:55.222Z,99586.03
2022-08-10T02:57:27.580Z,99582.47
2022-08-10T02:59:58.561Z,99589.09
2022-08-10T03:02:30.546Z,99591.41
2022-08-10T03:05:04.337Z,99584.19
2022-08-10T03:07:43.495Z,99578.25
2022-08-10T03:10:16.597Z,99572.03
2022-08-10T03:12:47.161Z,99585.22
2022-08-10T03:15:17.425Z,99583.59
2022-08-10T03:17:58.076Z,99590.00
2022-08-10T03:20:37.993Z,99586.16
2022-08-10T03:23:10.645Z,99582.41
2022-08-10T03:25:40.210Z,99592.31
2022-08-10T03:28:10.034Z,99598.78
2022-08-10T03:30:47.615Z,99594.25
2022-08-10T03:33:18.208Z,99597.25
2022-08-10T03:36:43.834Z,99596.06
2022-08-10T03:38:40.623Z,99593.19
2022-08-10T03:41:15.809Z,99595.50
2022-08-10T03:43:47.734Z,99598.91
2022-08-10T03:46:18.390Z,99597.13
2022-08-10T03:48:50.067Z,99596.03
2022-08-10T03:51:22.692Z,99595.84
2022-08-10T03:54:05.038Z,99596.59
2022-08-10T03:56:40.459Z,99603.81
2022-08-10T03:59:11.292Z,99602.22
2022-08-10T04:02:45.762Z,99608.38
2022-08-10T04:04:30.442Z,99609.97
2022-08-10T04:07:03.426Z,99614.34
2022-08-10T04:09:56.023Z,99615.31
2022-08-10T04:12:23.288Z,99622.25
2022-08-10T04:14:53.679Z,99619.97
2022-08-10T04:17:56.888Z,99613.63
2022-08-10T04:20:16.402Z,99616.22
2022-08-10T04:22:48.870Z,99618.22
2022-08-10T04:25:18.828Z,99618.63
2022-08-10T04:27:48.648Z,99614.66
2022-08-10T04:30:18.325Z,99611.19
2022-08-10T04:32:49.596Z,99625.16
2022-08-10T04:35:21.643Z,99617.75
2022-08-10T04:37:54.213Z,99620.25
2022-08-10T04:40:29.592Z,99616.13
2022-08-10T04:43:12.297Z,99627.06
2022-08-10T04:45:48.536Z,99619.03
2022-08-10T04:48:40.839Z,99621.91
2022-08-10T04:51:11.152Z,99623.50
2022-08-10T04:54:04.080Z,99617.69
2022-08-10T04:56:36.456Z,99615.94
2022-08-10T04:59:06.061Z,99614.88
2022-08-10T05:01:37.748Z,99614.50
2022-08-10T05:04:34.628Z,99611.00
2022-08-10T05:07:16.611Z,99615.22
2022-08-10T05:10:04.954Z,99610.78
2022-08-10T05:12:37.407Z,99615.50
2022-08-10T05:15:09.098Z,99612.59
2022-08-10T05:17:38.976Z,99617.72
2022-08-10T05:20:09.595Z,99619.13
2022-08-10T05:22:40.134Z,99626.06
2022-08-10T05:25:13.493Z,99624.44
2022-08-10T05:27:43.679Z,99621.66
2022-08-10T05:30:15.132Z,99624.50
2022-08-10T05:32:55.593Z,99629.34
2022-08-10T05:35:27.673Z,99626.94
2022-08-10T05:38:12.330Z,99627.63
2022-08-10T05:40:48.073Z,99637.28
2022-08-10T05:43:21.290Z,99623.44
2022-08-10T05:46:19.999Z,99627.38
2022-08-10T05:48:59.473Z,99624.66
2022-08-10T05:51:30.753Z,99632.03
2022-08-10T05:54:06.047Z,99627.97
2022-08-10T05:56:56.016Z,99639.28
2022-08-10T06:00:29.450Z,99631.59
2022-08-10T06:02:30.988Z,99633.13
2022-08-10T06:05:07.335Z,99629.53
2022-08-10T06:07:38.064Z,99645.31
2022-08-10T06:10:10.310Z,99642.03
2022-08-10T06:12:54.203Z,99639.13
2022-08-10T06:15:50.607Z,99641.56
2022-08-10T06:18:14.673Z,99643.09
2022-08-10T06:20:44.720Z,99643.09
2022-08-10T06:23:14.819Z,99647.88
2022-08-10T06:26:09.752Z,99647.72
2022-08-10T06:28:37.884Z,99645.75
2022-08-10T06:31:08.202Z,99650.06
2022-08-10T06:33:39.370Z,99644.31
2022-08-10T06:36:10.215Z,99646.75
2022-08-10T06:38:40.824Z,99642.75
2022-08-10T06:41:13.183Z,99641.41
2022-08-10T06:43:50.322Z,99636.69
2022-08-10T06:46:22.441Z,99637.25
2022-08-10T06:48:53.342Z,99631.47
2022-08-10T06:51:24.651Z,99637.78
2022-08-10T06:53:56.158Z,99640.47
2022-08-10T06:56:38.210Z,99633.44
2022-08-10T06:59:22.083Z,99632.31
2022-08-10T07:01:55.526Z,99629.38
2022-08-10T07:04:33.044Z,99632.06
2022-08-10T07:07:04.774Z,99626.28
2022-08-10T07:09:35.243Z,99632.56
2022-08-10T07:12:07.528Z,99631.13
2022-08-10T07:14:43.651Z,99627.25
2022-08-10T07:17:15.607Z,99623.13
2022-08-10T07:19:50.108Z,99619.00
2022-08-10T07:23:08.362Z,99629.22
2022-08-10T07:25:13.852Z,99619.94
2022-08-10T07:27:59.195Z,99630.09
2022-08-10T07:30:35.016Z,99629.44
2022-08-10T07:33:05.145Z,99625.78
2022-08-10T07:35:42.066Z,99625.88
2022-08-10T07:38:14.276Z,99623.88
2022-08-10T07:40:45.041Z,99626.13
2022-08-10T07:43:15.709Z,99630.22
2022-08-10T07:45:48.848Z,99626.75
2022-08-10T07:48:19.655Z,99627.13
2022-08-10T07:50:49.956Z,99622.34
2022-08-10T07:53:21.875Z,99622.16
2022-08-10T07:56:04.330Z,99626.53
2022-08-10T07:58:38.549Z,99631.94
2022-08-10T08:01:10.692Z,99627.94
2022-08-10T08:03:40.782Z,99633.88
2022-08-10T08:06:11.875Z,99623.69
2022-08-10T08:08:43.864Z,99622.16
2022-08-10T08:11:25.640Z,99619.19
2022-08-10T08:13:56.760Z,99623.78
2022-08-10T08:16:29.432Z,99620.63
2022-08-10T08:24:09.713Z,99625.25
2022-08-10T08:24:40.546Z,99620.13
2022-08-10T08:27:10.434Z,99629.63
2022-08-10T08:29:41.890Z,99621.50
2022-08-10T08:32:14.526Z,99618.25
2022-08-10T08:34:45.193Z,99614.25
2022-08-10T08:38:33.325Z,99617.25
2022-08-10T08:40:08.121Z,99614.81
2022-08-10T08:42:52.325Z,99612.38
2022-08-10T08:45:26.053Z,99615.63
2022-08-10T08:48:11.172Z,99602.63
2022-08-10T08:50:47.677Z,99603.72
2022-08-10T08:54:01.901Z,99612.91
2022-08-10T08:56:25.005Z,99603.72
2022-08-10T08:59:02.643Z,99606.16
2022-08-10T09:01:41.631Z,99608.28
2022-08-10T09:04:21.280Z,99599.91
2022-08-10T09:06:57.553Z,99600.13
2022-08-10T09:09:35.451Z,99605.78
2022-08-10T09:12:14.391Z,99604.66
2022-08-10T09:14:49.222Z,99603.00
2022-08-10T09:17:21.577Z,99595.63
2022-08-10T09:19:57.331Z,99592.13
2022-08-10T09:22:29.605Z,99585.59
2022-08-10T09:25:00.730Z,99586.88
2022-08-10T09:27:35.615Z,99586.84
2022-08-10T09:30:10.553Z,99591.41
2022-08-10T09:36:15.357Z,99586.47
2022-08-10T09:36:26.578Z,99581.00
2022-08-10T09:38:37.344Z,99578.06
2022-08-10T09:41:13.275Z,99569.06
2022-08-10T09:43:50.946Z,99567.91
2022-08-10T09:46:27.713Z,99572.91
2022-08-10T09:49:01.520Z,99579.69
2022-08-10T09:51:46.742Z,99569.34
2022-08-10T09:54:29.978Z,99572.81
2022-08-10T09:57:44.946Z,99574.03
2022-08-10T10:00:02.173Z,99567.97
2022-08-10T10:02:39.234Z,99554.41
2022-08-10T10:05:13.604Z,99552.78
2022-08-10T10:07:48.769Z,99552.78
2022-08-10T10:10:22.094Z,99559.81
2022-08-10T10:12:53.838Z,99561.44
2022-08-10T10:15:28.335Z,99556.81
2022-08-10T10:18:06.206Z,99548.09
2022-08-10T10:20:38.231Z,99554.66
2022-08-10T10:23:16.510Z,99555.84
2022-08-10T10:25:50.706Z,99551.84
2022-08-10T10:29:06.852Z,99546.50
2022-08-10T16:18:15.091Z,99260.59
2022-08-10T16:20:55.162Z,99258.03
2022-08-10T16:23:26.630Z,99261.25
2022-08-10T16:26:03.034Z,99257.75
2022-08-10T16:28:36.931Z,99250.06
2022-08-10T16:31:08.334Z,99261.94
2022-08-10T16:33:53.386Z,99255.75
2022-08-10T16:36:24.773Z,99248.69
2022-08-10T16:38:58.046Z,99257.97
2022-08-10T16:42:04.081Z,99249.66
2022-08-10T16:44:20.256Z,99245.47
2022-08-10T16:46:50.790Z,99252.22
2022-08-10T16:49:23.722Z,99241.47
2022-08-10T16:51:54.314Z,99239.31
2022-08-10T16:54:27.619Z,99241.53
2022-08-10T16:57:02.001Z,99238.66
2022-08-10T16:59:33.345Z,99233.34
2022-08-10T17:02:04.314Z,99234.63
2022-08-10T17:04:36.929Z,99232.22
2022-08-10T17:07:08.301Z,99227.56
2022-08-10T17:09:40.190Z,99223.41
2022-08-10T17:12:11.875Z,99227.56
2022-08-10T17:14:42.394Z,99228.06
2022-08-10T17:17:15.302Z,99229.16
2022-08-10T17:19:47.754Z,99227.41
2022-08-10T17:22:18.990Z,99234.47
2022-08-10T17:24:49.618Z,99226.44
2022-08-10T17:28:04.671Z,99225.63
2022-08-10T17:30:16.185Z,99231.13
2022-08-10T17:33:02.044Z,99233.69
2022-08-10T17:35:36.219Z,99231.91
2022-08-10T17:38:08.417Z,99220.63
2022-08-10T17:40:45.206Z,99219.66
2022-08-10T17:43:15.080Z,99233.50
2022-08-10T17:46:05.216Z,99234.47
2022-08-10T17:48:37.244Z,99224.13
2022-08-10T17:51:12.531Z,99235.22
2022-08-10T17:53:43.111Z,99225.25
2022-08-10T17:56:13.403Z,99228.69
2022-08-10T17:58:47.851Z,99239.47
2022-08-10T18:01:41.644Z,99232.13
2022-08-10T18:04:15.034Z,99229.81
2022-08-10T18:06:48.017Z,99232.16
2022-08-10T18:09:27.040Z,99229.38
2022-08-10T18:12:02.338Z,99230.38
2022-08-10T18:14:40.384Z,99234.34
2022-08-10T22:16:36.007Z,99301.22
2022-08-10T22:19:18.506Z,99297.91
2022-08-10T22:22:07.051Z,99307.03
2022-08-10T22:25:16.730Z,99302.03
2022-08-10T22:27:59.983Z,99306.31
2022-08-10T22:31:14.964Z,99303.03
2022-08-10T22:33:56.864Z,99304.72
2022-08-10T22:36:59.988Z,99309.31
2022-08-10T22:40:11.701Z,99320.06
2022-08-10T22:42:58.417Z,99317.38
2022-08-10T22:45:54.087Z,99325.16
2022-08-10T22:48:36.290Z,99324.72
2022-08-10T22:51:30.881Z,99326.47
2022-08-10T22:54:30.530Z,99330.31
2022-08-10T22:57:22.861Z,99328.38
2022-08-10T22:59:53.602Z,99331.06
2022-08-10T23:02:30.784Z,99326.22
2022-08-10T23:05:04.840Z,99321.53
2022-08-10T23:07:38.385Z,99322.53
2022-08-10T23:10:09.232Z,99323.50
2022-08-10T23:12:40.546Z,99325.44
2022-08-10T23:15:29.917Z,99321.69
2022-08-10T23:18:12.188Z,99328.06
2022-08-10T23:20:42.676Z,99318.94
2022-08-10T23:23:24.096Z,99311.69
2022-08-10T23:25:57.164Z,99317.97
2022-08-10T23:28:38.268Z,99313.97
2022-08-10T23:31:12.669Z,99316.75
2022-08-10T23:33:42.733Z,99314.97
2022-08-10T23:36:33.546Z,99319.47
2022-08-10T23:39:27.033Z,99321.25
2022-08-10T23:42:03.067Z,99327.41
2022-08-10T23:44:36.521Z,99328.47
2022-08-10T23:47:06.360Z,99328.88
2022-08-10T23:49:37.102Z,99327.03
2022-08-10T23:52:13.669Z,99322.72
2022-08-10T23:54:50.532Z,99325.69
2022-08-10T23:57:21.355Z,99322.19
2022-08-10T23:59:55.542Z,99321.84
